sensor_id;sensor_type;location;lat;lon;timestamp;temperature;humidity
4904;DHT22;2467;48.142;11.616;2023-03-01T00:00:15;3.50;99.90
4904;DHT22;2467;48.142;11.616;2023-03-01T00:00:46;3.50;99.90
4904;DHT22;2467;48.142;11.616;2023-03-01T00:01:20;3.60;99.90
4904;DHT22;2467;48.142;11.616;2023-03-01T00:01:54;3.60;99.90
4904;DHT22;2467;48.142;11.616;2023-03-01T00:02:26;3.60;99.90
4904;DHT22;2467;48.142;11.616;2023-03-01T00:02:58;3.60;99.90
4904;DHT22;2467;48.142;11.616;2023-03-01T00:03:31;3.60;99.90
4904;DHT22;2467;48.142;11.616;2023-03-01T00:04:03;3.60;99.90
4904;DHT22;2467;48.142;11.616;2023-03-01T00:04:35;3.70;99.90
4904;DHT22;2467;48.142;11.616;2023-03-01T00:05:08;3.60;99.90
4904;DHT22;2467;48.142;11.616;2023-03-01T00:05:44;3.60;99.90
4904;DHT22;2467;48.142;11.616;2023-03-01T00:06:16;3.70;99.90
4904;DHT22;2467;48.142;11.616;2023-03-01T00:06:49;3.70;99.90
4904;DHT22;2467;48.142;11.616;2023-03-01T00:07:21;3.70;99.90
4904;DHT22;2467;48.142;11.616;2023-03-01T00:07:53;3.70;99.90
4904;DHT22;2467;48.142;11.616;2023-03-01T00:08:26;3.70;99.90
4904;DHT22;2467;48.142;11.616;2023-03-01T00:08:58;3.70;99.90
4904;DHT22;2467;48.142;11.616;2023-03-01T00:09:30;3.70;99.90
4904;DHT22;2467;48.142;11.616;2023-03-01T00:10:04;3.70;99.90
4904;DHT22;2467;48.142;11.616;2023-03-01T00:10:36;3.80;99.90
4904;DHT22;2467;48.142;11.616;2023-03-01T00:11:12;3.80;99.90
4904;DHT22;2467;48.142;11.616;2023-03-01T00:11:46;3.80;99.90
4904;DHT22;2467;48.142;11.616;2023-03-01T00:12:18;3.80;99.90
4904;DHT22;2467;48.142;11.616;2023-03-01T00:12:50;3.70;99.90
4904;DHT22;2467;48.142;11.616;2023-03-01T00:13:22;3.70;99.90
4904;DHT22;2467;48.142;11.616;2023-03-01T00:13:56;3.80;99.90
4904;DHT22;2467;48.142;11.616;2023-03-01T00:14:28;3.80;99.90
4904;DHT22;2467;48.142;11.616;2023-03-01T00:15:01;3.80;99.90
4904;DHT22;2467;48.142;11.616;2023-03-01T00:15:33;3.80;99.90
4904;DHT22;2467;48.142;11.616;2023-03-01T00:16:08;3.80;99.90
4904;DHT22;2467;48.142;11.616;2023-03-01T00:16:42;3.80;99.90
4904;DHT22;2467;48.142;11.616;2023-03-01T00:17:15;3.80;99.90
4904;DHT22;2467;48.142;11.616;2023-03-01T00:17:47;3.90;99.90
4904;DHT22;2467;48.142;11.616;2023-03-01T00:18:18;3.80;99.90
4904;DHT22;2467;48.142;11.616;2023-03-01T00:18:50;3.80;99.90
4904;DHT22;2467;48.142;11.616;2023-03-01T00:19:24;3.80;99.90
4904;DHT22;2467;48.142;11.616;2023-03-01T00:19:55;3.90;99.90
4904;DHT22;2467;48.142;11.616;2023-03-01T00:20:27;3.80;99.90
4904;DHT22;2467;48.142;11.616;2023-03-01T00:20:59;3.90;99.90
4904;DHT22;2467;48.142;11.616;2023-03-01T00:21:32;3.80;99.90
4904;DHT22;2467;48.142;11.616;2023-03-01T00:22:05;3.80;99.90
4904;DHT22;2467;48.142;11.616;2023-03-01T00:22:37;3.80;99.90
4904;DHT22;2467;48.142;11.616;2023-03-01T00:23:10;3.80;99.90
4904;DHT22;2467;48.142;11.616;2023-03-01T00:23:41;3.80;99.90
4904;DHT22;2467;48.142;11.616;2023-03-01T00:24:14;3.80;99.90
4904;DHT22;2467;48.142;11.616;2023-03-01T00:24:47;3.70;99.90
4904;DHT22;2467;48.142;11.616;2023-03-01T00:25:19;3.70;99.90
4904;DHT22;2467;48.142;11.616;2023-03-01T00:25:51;3.60;99.90
4904;DHT22;2467;48.142;11.616;2023-03-01T00:26:25;3.60;99.90
4904;DHT22;2467;48.142;11.616;2023-03-01T00:26:57;3.60;99.90
4904;DHT22;2467;48.142;11.616;2023-03-01T00:27:30;3.60;99.90
4904;DHT22;2467;48.142;11.616;2023-03-01T00:28:02;3.50;99.90
4904;DHT22;2467;48.142;11.616;2023-03-01T00:28:34;3.60;99.90
4904;DHT22;2467;48.142;11.616;2023-03-01T00:29:07;3.60;99.90
4904;DHT22;2467;48.142;11.616;2023-03-01T00:29:39;3.60;99.90
4904;DHT22;2467;48.142;11.616;2023-03-01T00:30:11;3.60;99.90
4904;DHT22;2467;48.142;11.616;2023-03-01T00:30:44;3.60;99.90
4904;DHT22;2467;48.142;11.616;2023-03-01T00:31:19;3.50;99.90
4904;DHT22;2467;48.142;11.616;2023-03-01T00:31:51;3.50;99.90
4904;DHT22;2467;48.142;11.616;2023-03-01T00:32:24;3.50;99.90
4904;DHT22;2467;48.142;11.616;2023-03-01T00:32:56;3.50;99.90
4904;DHT22;2467;48.142;11.616;2023-03-01T00:33:28;3.50;99.90
4904;DHT22;2467;48.142;11.616;2023-03-01T00:34:02;3.50;99.90
4904;DHT22;2467;48.142;11.616;2023-03-01T00:34:34;3.50;99.90
4904;DHT22;2467;48.142;11.616;2023-03-01T00:35:06;3.50;99.90
4904;DHT22;2467;48.142;11.616;2023-03-01T00:35:39;3.40;99.90
4904;DHT22;2467;48.142;11.616;2023-03-01T00:36:13;3.50;99.90
4904;DHT22;2467;48.142;11.616;2023-03-01T00:36:45;3.50;99.90
4904;DHT22;2467;48.142;11.616;2023-03-01T00:37:18;3.50;99.90
4904;DHT22;2467;48.142;11.616;2023-03-01T00:37:50;3.60;99.90
4904;DHT22;2467;48.142;11.616;2023-03-01T00:38:29;3.60;99.90
4904;DHT22;2467;48.142;11.616;2023-03-01T00:39:02;3.60;99.90
4904;DHT22;2467;48.142;11.616;2023-03-01T00:39:36;3.60;99.90
4904;DHT22;2467;48.142;11.616;2023-03-01T00:40:09;3.50;99.90
4904;DHT22;2467;48.142;11.616;2023-03-01T00:40:41;3.60;99.90
4904;DHT22;2467;48.142;11.616;2023-03-01T00:41:16;3.60;99.90
4904;DHT22;2467;48.142;11.616;2023-03-01T00:41:49;3.50;99.90
4904;DHT22;2467;48.142;11.616;2023-03-01T00:42:21;3.50;99.90
4904;DHT22;2467;48.142;11.616;2023-03-01T00:42:54;3.30;99.90
4904;DHT22;2467;48.142;11.616;2023-03-01T00:43:26;3.40;99.90
4904;DHT22;2467;48.142;11.616;2023-03-01T00:43:58;3.30;99.90
4904;DHT22;2467;48.142;11.616;2023-03-01T00:44:31;3.30;99.90
4904;DHT22;2467;48.142;11.616;2023-03-01T00:45:04;3.30;99.90
4904;DHT22;2467;48.142;11.616;2023-03-01T00:45:36;3.30;99.90
4904;DHT22;2467;48.142;11.616;2023-03-01T00:46:10;3.20;99.90
4904;DHT22;2467;48.142;11.616;2023-03-01T00:46:42;3.20;99.90
4904;DHT22;2467;48.142;11.616;2023-03-01T00:47:14;3.20;99.90
4904;DHT22;2467;48.142;11.616;2023-03-01T00:47:48;3.20;99.90
4904;DHT22;2467;48.142;11.616;2023-03-01T00:48:20;3.20;99.90
4904;DHT22;2467;48.142;11.616;2023-03-01T00:48:52;3.20;99.90
4904;DHT22;2467;48.142;11.616;2023-03-01T00:49:24;3.20;99.90
4904;DHT22;2467;48.142;11.616;2023-03-01T00:49:59;3.20;99.90
4904;DHT22;2467;48.142;11.616;2023-03-01T00:50:30;3.20;99.90
4904;DHT22;2467;48.142;11.616;2023-03-01T00:51:06;3.20;99.90
4904;DHT22;2467;48.142;11.616;2023-03-01T00:51:39;3.20;99.90
4904;DHT22;2467;48.142;11.616;2023-03-01T00:52:12;3.20;99.90
4904;DHT22;2467;48.142;11.616;2023-03-01T00:52:45;3.20;99.90
4904;DHT22;2467;48.142;11.616;2023-03-01T00:53:17;3.30;99.90
4904;DHT22;2467;48.142;11.616;2023-03-01T00:53:50;3.30;99.90
4904;DHT22;2467;48.142;11.616;2023-03-01T00:54:22;3.30;99.90
4904;DHT22;2467;48.142;11.616;2023-03-01T00:54:55;3.40;99.90
4904;DHT22;2467;48.142;11.616;2023-03-01T00:55:27;3.30;99.90
4904;DHT22;2467;48.142;11.616;2023-03-01T00:55:59;3.20;99.90
4904;DHT22;2467;48.142;11.616;2023-03-01T00:56:32;3.20;99.90
4904;DHT22;2467;48.142;11.616;2023-03-01T00:57:05;3.20;99.90
4904;DHT22;2467;48.142;11.616;2023-03-01T00:57:38;3.30;99.90
4904;DHT22;2467;48.142;11.616;2023-03-01T00:58:10;3.30;99.90
4904;DHT22;2467;48.142;11.616;2023-03-01T00:58:42;3.40;99.90
4904;DHT22;2467;48.142;11.616;2023-03-01T00:59:15;3.40;99.90
4904;DHT22;2467;48.142;11.616;2023-03-01T00:59:47;3.40;99.90
4904;DHT22;2467;48.142;11.616;2023-03-01T01:00:19;3.40;99.90
4904;DHT22;2467;48.142;11.616;2023-03-01T01:00:52;3.40;99.90
4904;DHT22;2467;48.142;11.616;2023-03-01T01:01:26;3.40;99.90
4904;DHT22;2467;48.142;11.616;2023-03-01T01:02:01;3.40;99.90
4904;DHT22;2467;48.142;11.616;2023-03-01T01:02:34;3.40;99.90
4904;DHT22;2467;48.142;11.616;2023-03-01T01:03:06;3.40;99.90
4904;DHT22;2467;48.142;11.616;2023-03-01T01:03:38;3.40;99.90
4904;DHT22;2467;48.142;11.616;2023-03-01T01:04:12;3.40;99.90
4904;DHT22;2467;48.142;11.616;2023-03-01T01:04:45;3.40;99.90
4904;DHT22;2467;48.142;11.616;2023-03-01T01:05:17;3.40;99.90
4904;DHT22;2467;48.142;11.616;2023-03-01T01:05:52;3.40;99.90
4904;DHT22;2467;48.142;11.616;2023-03-01T01:06:27;3.30;99.90
4904;DHT22;2467;48.142;11.616;2023-03-01T01:06:59;3.30;99.90
4904;DHT22;2467;48.142;11.616;2023-03-01T01:07:31;3.30;99.90
4904;DHT22;2467;48.142;11.616;2023-03-01T01:08:03;3.30;99.90
4904;DHT22;2467;48.142;11.616;2023-03-01T01:08:36;3.30;99.90
4904;DHT22;2467;48.142;11.616;2023-03-01T01:09:09;3.30;99.90
4904;DHT22;2467;48.142;11.616;2023-03-01T01:09:48;3.40;99.90
4904;DHT22;2467;48.142;11.616;2023-03-01T01:10:21;3.40;99.90
4904;DHT22;2467;48.142;11.616;2023-03-01T01:10:53;3.40;99.90
4904;DHT22;2467;48.142;11.616;2023-03-01T01:11:27;3.40;99.90
4904;DHT22;2467;48.142;11.616;2023-03-01T01:12:00;3.30;99.90
4904;DHT22;2467;48.142;11.616;2023-03-01T01:12:33;3.30;99.90
4904;DHT22;2467;48.142;11.616;2023-03-01T01:13:05;3.30;99.90
4904;DHT22;2467;48.142;11.616;2023-03-01T01:13:38;3.30;99.90
4904;DHT22;2467;48.142;11.616;2023-03-01T01:14:10;3.30;99.90
4904;DHT22;2467;48.142;11.616;2023-03-01T01:14:42;3.30;99.90
4904;DHT22;2467;48.142;11.616;2023-03-01T01:15:14;3.30;99.90
4904;DHT22;2467;48.142;11.616;2023-03-01T01:15:48;3.30;99.90
4904;DHT22;2467;48.142;11.616;2023-03-01T01:16:22;3.20;99.90
4904;DHT22;2467;48.142;11.616;2023-03-01T01:16:54;3.30;99.90
4904;DHT22;2467;48.142;11.616;2023-03-01T01:17:27;3.30;99.90
4904;DHT22;2467;48.142;11.616;2023-03-01T01:17:59;3.30;99.90
4904;DHT22;2467;48.142;11.616;2023-03-01T01:18:31;3.40;99.90
4904;DHT22;2467;48.142;11.616;2023-03-01T01:19:03;3.40;99.90
4904;DHT22;2467;48.142;11.616;2023-03-01T01:19:36;3.40;99.90
4904;DHT22;2467;48.142;11.616;2023-03-01T01:20:10;3.50;99.90
4904;DHT22;2467;48.142;11.616;2023-03-01T01:20:42;3.40;99.90
4904;DHT22;2467;48.142;11.616;2023-03-01T01:21:17;3.40;99.90
4904;DHT22;2467;48.142;11.616;2023-03-01T01:21:49;3.40;99.90
4904;DHT22;2467;48.142;11.616;2023-03-01T01:22:21;3.40;99.90
4904;DHT22;2467;48.142;11.616;2023-03-01T01:22:53;3.40;99.90
4904;DHT22;2467;48.142;11.616;2023-03-01T01:23:26;3.40;99.90
4904;DHT22;2467;48.142;11.616;2023-03-01T01:23:58;3.50;99.90
4904;DHT22;2467;48.142;11.616;2023-03-01T01:24:30;3.50;99.90
4904;DHT22;2467;48.142;11.616;2023-03-01T01:25:03;3.50;99.90
4904;DHT22;2467;48.142;11.616;2023-03-01T01:25:35;3.40;99.90
4904;DHT22;2467;48.142;11.616;2023-03-01T01:26:09;3.50;99.90
4904;DHT22;2467;48.142;11.616;2023-03-01T01:26:42;3.50;99.90
4904;DHT22;2467;48.142;11.616;2023-03-01T01:27:15;3.50;99.90
4904;DHT22;2467;48.142;11.616;2023-03-01T01:27:48;3.50;99.90
4904;DHT22;2467;48.142;11.616;2023-03-01T01:28:20;3.50;99.90
4904;DHT22;2467;48.142;11.616;2023-03-01T01:28:53;3.60;99.90
4904;DHT22;2467;48.142;11.616;2023-03-01T01:29:25;3.60;99.90
4904;DHT22;2467;48.142;11.616;2023-03-01T01:29:57;3.60;99.90
4904;DHT22;2467;48.142;11.616;2023-03-01T01:30:30;3.60;99.90
4904;DHT22;2467;48.142;11.616;2023-03-01T01:31:02;3.60;99.90
4904;DHT22;2467;48.142;11.616;2023-03-01T01:31:35;3.60;99.90
4904;DHT22;2467;48.142;11.616;2023-03-01T01:32:09;3.50;99.90
4904;DHT22;2467;48.142;11.616;2023-03-01T01:32:41;3.50;99.90
4904;DHT22;2467;48.142;11.616;2023-03-01T01:33:13;3.50;99.90
4904;DHT22;2467;48.142;11.616;2023-03-01T01:33:46;3.50;99.90
4904;DHT22;2467;48.142;11.616;2023-03-01T01:34:19;3.50;99.90
4904;DHT22;2467;48.142;11.616;2023-03-01T01:34:51;3.50;99.90
4904;DHT22;2467;48.142;11.616;2023-03-01T01:35:23;3.50;99.90
4904;DHT22;2467;48.142;11.616;2023-03-01T01:35:56;3.40;99.90
4904;DHT22;2467;48.142;11.616;2023-03-01T01:36:28;3.40;99.90
4904;DHT22;2467;48.142;11.616;2023-03-01T01:37:02;3.40;99.90
4904;DHT22;2467;48.142;11.616;2023-03-01T01:37:34;3.40;99.90
4904;DHT22;2467;48.142;11.616;2023-03-01T01:38:06;3.40;99.90
4904;DHT22;2467;48.142;11.616;2023-03-01T01:38:39;3.50;99.90
4904;DHT22;2467;48.142;11.616;2023-03-01T01:39:11;3.50;99.90
4904;DHT22;2467;48.142;11.616;2023-03-01T01:39:44;3.50;99.90
4904;DHT22;2467;48.142;11.616;2023-03-01T01:40:17;3.50;99.90
4904;DHT22;2467;48.142;11.616;2023-03-01T01:40:50;3.50;99.90
4904;DHT22;2467;48.142;11.616;2023-03-01T01:41:23;3.50;99.90
4904;DHT22;2467;48.142;11.616;2023-03-01T01:41:56;3.50;99.90
4904;DHT22;2467;48.142;11.616;2023-03-01T01:42:28;3.50;99.90
4904;DHT22;2467;48.142;11.616;2023-03-01T01:43:01;3.50;99.90
4904;DHT22;2467;48.142;11.616;2023-03-01T01:43:37;3.50;99.90
4904;DHT22;2467;48.142;11.616;2023-03-01T01:44:15;3.50;99.90
4904;DHT22;2467;48.142;11.616;2023-03-01T01:45:15;3.50;99.90
4904;DHT22;2467;48.142;11.616;2023-03-01T01:45:41;3.40;99.90
4904;DHT22;2467;48.142;11.616;2023-03-01T01:46:21;3.40;99.90
4904;DHT22;2467;48.142;11.616;2023-03-01T01:46:59;3.40;99.90
4904;DHT22;2467;48.142;11.616;2023-03-01T01:47:32;3.40;99.90
4904;DHT22;2467;48.142;11.616;2023-03-01T01:48:09;3.40;99.90
4904;DHT22;2467;48.142;11.616;2023-03-01T01:48:45;3.40;99.90
4904;DHT22;2467;48.142;11.616;2023-03-01T01:49:32;3.30;99.90
4904;DHT22;2467;48.142;11.616;2023-03-01T01:50:08;3.30;99.90
4904;DHT22;2467;48.142;11.616;2023-03-01T01:50:41;3.30;99.90
4904;DHT22;2467;48.142;11.616;2023-03-01T01:51:20;3.30;99.90
4904;DHT22;2467;48.142;11.616;2023-03-01T01:52:02;3.30;99.90
4904;DHT22;2467;48.142;11.616;2023-03-01T01:52:37;3.40;99.90
4904;DHT22;2467;48.142;11.616;2023-03-01T01:53:12;3.40;99.90
4904;DHT22;2467;48.142;11.616;2023-03-01T01:53:48;3.40;99.90
4904;DHT22;2467;48.142;11.616;2023-03-01T01:54:25;3.40;99.90
4904;DHT22;2467;48.142;11.616;2023-03-01T01:55:02;3.50;99.90
4904;DHT22;2467;48.142;11.616;2023-03-01T01:55:36;3.50;99.90
4904;DHT22;2467;48.142;11.616;2023-03-01T01:56:12;3.60;99.90
4904;DHT22;2467;48.142;11.616;2023-03-01T01:56:49;3.60;99.90
4904;DHT22;2467;48.142;11.616;2023-03-01T01:57:25;3.50;99.90
4904;DHT22;2467;48.142;11.616;2023-03-01T01:58:01;3.60;99.90
4904;DHT22;2467;48.142;11.616;2023-03-01T01:58:36;3.50;99.90
4904;DHT22;2467;48.142;11.616;2023-03-01T01:59:09;3.50;99.90
4904;DHT22;2467;48.142;11.616;2023-03-01T01:59:43;3.50;99.90
4904;DHT22;2467;48.142;11.616;2023-03-01T02:00:20;3.50;99.90
4904;DHT22;2467;48.142;11.616;2023-03-01T02:00:53;3.50;99.90
4904;DHT22;2467;48.142;11.616;2023-03-01T02:01:25;3.50;99.90
4904;DHT22;2467;48.142;11.616;2023-03-01T02:01:59;3.50;99.90
4904;DHT22;2467;48.142;11.616;2023-03-01T02:02:34;3.50;99.90
4904;DHT22;2467;48.142;11.616;2023-03-01T02:03:09;3.40;99.90
4904;DHT22;2467;48.142;11.616;2023-03-01T02:03:43;3.40;99.90
4904;DHT22;2467;48.142;11.616;2023-03-01T02:04:17;3.50;99.90
4904;DHT22;2467;48.142;11.616;2023-03-01T02:04:51;3.40;99.90
4904;DHT22;2467;48.142;11.616;2023-03-01T02:05:28;3.40;99.90
4904;DHT22;2467;48.142;11.616;2023-03-01T02:06:11;3.40;99.90
4904;DHT22;2467;48.142;11.616;2023-03-01T02:06:49;3.40;99.90
4904;DHT22;2467;48.142;11.616;2023-03-01T02:07:23;3.40;99.90
4904;DHT22;2467;48.142;11.616;2023-03-01T02:07:57;3.30;99.90
4904;DHT22;2467;48.142;11.616;2023-03-01T02:08:32;3.30;99.90
4904;DHT22;2467;48.142;11.616;2023-03-01T02:09:08;3.30;99.90
4904;DHT22;2467;48.142;11.616;2023-03-01T02:09:46;3.40;99.90
4904;DHT22;2467;48.142;11.616;2023-03-01T02:10:18;3.30;99.90
4904;DHT22;2467;48.142;11.616;2023-03-01T02:10:51;3.30;99.90
4904;DHT22;2467;48.142;11.616;2023-03-01T02:11:24;3.30;99.90
4904;DHT22;2467;48.142;11.616;2023-03-01T02:11:57;3.30;99.90
4904;DHT22;2467;48.142;11.616;2023-03-01T02:12:31;3.30;99.90
4904;DHT22;2467;48.142;11.616;2023-03-01T02:13:03;3.30;99.90
4904;DHT22;2467;48.142;11.616;2023-03-01T02:13:37;3.30;99.90
4904;DHT22;2467;48.142;11.616;2023-03-01T02:14:10;3.30;99.90
4904;DHT22;2467;48.142;11.616;2023-03-01T02:14:42;3.20;99.90
4904;DHT22;2467;48.142;11.616;2023-03-01T02:15:14;3.20;99.90
4904;DHT22;2467;48.142;11.616;2023-03-01T02:15:47;3.20;99.90
4904;DHT22;2467;48.142;11.616;2023-03-01T02:16:20;3.20;99.90
4904;DHT22;2467;48.142;11.616;2023-03-01T02:16:52;3.20;99.90
4904;DHT22;2467;48.142;11.616;2023-03-01T02:17:25;3.20;99.90
4904;DHT22;2467;48.142;11.616;2023-03-01T02:17:57;3.20;99.90
4904;DHT22;2467;48.142;11.616;2023-03-01T02:18:29;3.30;99.90
4904;DHT22;2467;48.142;11.616;2023-03-01T02:19:03;3.30;99.90
4904;DHT22;2467;48.142;11.616;2023-03-01T02:19:47;3.30;99.90
4904;DHT22;2467;48.142;11.616;2023-03-01T02:20:27;3.30;99.90
4904;DHT22;2467;48.142;11.616;2023-03-01T02:21:12;3.30;99.90
4904;DHT22;2467;48.142;11.616;2023-03-01T02:21:55;3.30;99.90
4904;DHT22;2467;48.142;11.616;2023-03-01T02:22:33;3.30;99.90
4904;DHT22;2467;48.142;11.616;2023-03-01T02:23:07;3.30;99.90
4904;DHT22;2467;48.142;11.616;2023-03-01T02:23:39;3.30;99.90
4904;DHT22;2467;48.142;11.616;2023-03-01T02:24:21;3.30;99.90
4904;DHT22;2467;48.142;11.616;2023-03-01T02:25:06;3.20;99.90
4904;DHT22;2467;48.142;11.616;2023-03-01T02:25:47;3.20;99.90
4904;DHT22;2467;48.142;11.616;2023-03-01T02:26:29;3.20;99.90
4904;DHT22;2467;48.142;11.616;2023-03-01T02:27:05;3.20;99.90
4904;DHT22;2467;48.142;11.616;2023-03-01T02:27:41;3.20;99.90
4904;DHT22;2467;48.142;11.616;2023-03-01T02:28:28;3.20;99.90
4904;DHT22;2467;48.142;11.616;2023-03-01T02:29:00;3.20;99.90
4904;DHT22;2467;48.142;11.616;2023-03-01T02:29:32;3.20;99.90
4904;DHT22;2467;48.142;11.616;2023-03-01T02:30:06;3.20;99.90
4904;DHT22;2467;48.142;11.616;2023-03-01T02:30:39;3.20;99.90
4904;DHT22;2467;48.142;11.616;2023-03-01T02:31:31;3.10;99.90
4904;DHT22;2467;48.142;11.616;2023-03-01T02:32:17;3.10;99.90
4904;DHT22;2467;48.142;11.616;2023-03-01T02:32:57;3.10;99.90
4904;DHT22;2467;48.142;11.616;2023-03-01T02:33:36;3.10;99.90
4904;DHT22;2467;48.142;11.616;2023-03-01T02:34:12;3.10;99.90
4904;DHT22;2467;48.142;11.616;2023-03-01T02:34:44;3.10;99.90
4904;DHT22;2467;48.142;11.616;2023-03-01T02:35:18;3.10;99.90
4904;DHT22;2467;48.142;11.616;2023-03-01T02:35:51;3.10;99.90
4904;DHT22;2467;48.142;11.616;2023-03-01T02:36:26;3.10;99.90
4904;DHT22;2467;48.142;11.616;2023-03-01T02:37:05;3.10;99.90
4904;DHT22;2467;48.142;11.616;2023-03-01T02:37:38;3.10;99.90
4904;DHT22;2467;48.142;11.616;2023-03-01T02:38:11;3.10;99.90
4904;DHT22;2467;48.142;11.616;2023-03-01T02:38:44;3.10;99.90
4904;DHT22;2467;48.142;11.616;2023-03-01T02:39:18;3.10;99.90
4904;DHT22;2467;48.142;11.616;2023-03-01T02:39:55;3.10;99.90
4904;DHT22;2467;48.142;11.616;2023-03-01T02:40:30;3.10;99.90
4904;DHT22;2467;48.142;11.616;2023-03-01T02:41:06;3.00;99.90
4904;DHT22;2467;48.142;11.616;2023-03-01T02:41:41;3.00;99.90
4904;DHT22;2467;48.142;11.616;2023-03-01T02:42:18;3.00;99.90
4904;DHT22;2467;48.142;11.616;2023-03-01T02:42:54;2.90;99.90
4904;DHT22;2467;48.142;11.616;2023-03-01T02:43:31;2.90;99.90
4904;DHT22;2467;48.142;11.616;2023-03-01T02:44:04;3.00;99.90
4904;DHT22;2467;48.142;11.616;2023-03-01T02:44:36;2.90;99.90
4904;DHT22;2467;48.142;11.616;2023-03-01T02:45:09;2.90;99.90
4904;DHT22;2467;48.142;11.616;2023-03-01T02:45:47;2.90;99.90
4904;DHT22;2467;48.142;11.616;2023-03-01T02:46:22;2.90;99.90
4904;DHT22;2467;48.142;11.616;2023-03-01T02:46:56;2.80;99.90
4904;DHT22;2467;48.142;11.616;2023-03-01T02:47:32;2.90;99.90
4904;DHT22;2467;48.142;11.616;2023-03-01T02:48:05;2.90;99.90
4904;DHT22;2467;48.142;11.616;2023-03-01T02:48:40;2.80;99.90
4904;DHT22;2467;48.142;11.616;2023-03-01T02:49:21;2.80;99.90
4904;DHT22;2467;48.142;11.616;2023-03-01T02:49:55;2.90;99.90
4904;DHT22;2467;48.142;11.616;2023-03-01T02:50:51;2.90;99.90
4904;DHT22;2467;48.142;11.616;2023-03-01T02:51:42;2.90;99.90
4904;DHT22;2467;48.142;11.616;2023-03-01T02:52:29;2.90;99.90
4904;DHT22;2467;48.142;11.616;2023-03-01T02:53:06;2.90;99.90
4904;DHT22;2467;48.142;11.616;2023-03-01T02:53:47;3.00;99.90
4904;DHT22;2467;48.142;11.616;2023-03-01T02:54:25;2.90;99.90
4904;DHT22;2467;48.142;11.616;2023-03-01T02:55:02;3.00;99.90
4904;DHT22;2467;48.142;11.616;2023-03-01T02:55:35;2.90;99.90
4904;DHT22;2467;48.142;11.616;2023-03-01T02:56:08;2.90;99.90
4904;DHT22;2467;48.142;11.616;2023-03-01T02:56:45;2.90;99.90
4904;DHT22;2467;48.142;11.616;2023-03-01T02:57:19;2.90;99.90
4904;DHT22;2467;48.142;11.616;2023-03-01T02:57:53;2.90;99.90
4904;DHT22;2467;48.142;11.616;2023-03-01T02:58:28;2.90;99.90
4904;DHT22;2467;48.142;11.616;2023-03-01T02:59:00;2.90;99.90
4904;DHT22;2467;48.142;11.616;2023-03-01T02:59:34;2.90;99.90
4904;DHT22;2467;48.142;11.616;2023-03-01T03:00:12;3.00;99.90
4904;DHT22;2467;48.142;11.616;2023-03-01T03:00:51;3.00;99.90
4904;DHT22;2467;48.142;11.616;2023-03-01T03:01:23;3.00;99.90
4904;DHT22;2467;48.142;11.616;2023-03-01T03:02:05;3.00;99.90
4904;DHT22;2467;48.142;11.616;2023-03-01T03:02:36;3.00;99.90
4904;DHT22;2467;48.142;11.616;2023-03-01T03:03:09;3.00;99.90
4904;DHT22;2467;48.142;11.616;2023-03-01T03:03:42;3.00;99.90
4904;DHT22;2467;48.142;11.616;2023-03-01T03:04:16;3.00;99.90
4904;DHT22;2467;48.142;11.616;2023-03-01T03:04:49;3.00;99.90
4904;DHT22;2467;48.142;11.616;2023-03-01T03:05:23;3.00;99.90
4904;DHT22;2467;48.142;11.616;2023-03-01T03:05:55;3.00;99.90
4904;DHT22;2467;48.142;11.616;2023-03-01T03:06:27;3.00;99.90
4904;DHT22;2467;48.142;11.616;2023-03-01T03:07:01;3.00;99.90
4904;DHT22;2467;48.142;11.616;2023-03-01T03:07:33;3.00;99.90
4904;DHT22;2467;48.142;11.616;2023-03-01T03:08:05;3.00;99.90
4904;DHT22;2467;48.142;11.616;2023-03-01T03:08:39;3.10;99.90
4904;DHT22;2467;48.142;11.616;2023-03-01T03:09:12;3.10;99.90
4904;DHT22;2467;48.142;11.616;2023-03-01T03:09:47;3.20;99.90
4904;DHT22;2467;48.142;11.616;2023-03-01T03:10:22;3.20;99.90
4904;DHT22;2467;48.142;11.616;2023-03-01T03:10:53;3.20;99.90
4904;DHT22;2467;48.142;11.616;2023-03-01T03:11:25;3.30;99.90
4904;DHT22;2467;48.142;11.616;2023-03-01T03:11:58;3.30;99.90
4904;DHT22;2467;48.142;11.616;2023-03-01T03:12:30;3.30;99.90
4904;DHT22;2467;48.142;11.616;2023-03-01T03:13:04;3.30;99.90
4904;DHT22;2467;48.142;11.616;2023-03-01T03:13:38;3.30;99.90
4904;DHT22;2467;48.142;11.616;2023-03-01T03:14:19;3.30;99.90
4904;DHT22;2467;48.142;11.616;2023-03-01T03:14:52;3.30;99.90
4904;DHT22;2467;48.142;11.616;2023-03-01T03:15:24;3.20;99.90
4904;DHT22;2467;48.142;11.616;2023-03-01T03:15:57;3.20;99.90
4904;DHT22;2467;48.142;11.616;2023-03-01T03:16:30;3.10;99.90
4904;DHT22;2467;48.142;11.616;2023-03-01T03:17:02;3.10;99.90
4904;DHT22;2467;48.142;11.616;2023-03-01T03:17:40;3.00;99.90
4904;DHT22;2467;48.142;11.616;2023-03-01T03:18:16;3.00;99.90
4904;DHT22;2467;48.142;11.616;2023-03-01T03:18:49;2.90;99.90
4904;DHT22;2467;48.142;11.616;2023-03-01T03:19:21;2.90;99.90
4904;DHT22;2467;48.142;11.616;2023-03-01T03:19:53;2.90;99.90
4904;DHT22;2467;48.142;11.616;2023-03-01T03:20:27;2.90;99.90
4904;DHT22;2467;48.142;11.616;2023-03-01T03:20:59;2.90;99.90
4904;DHT22;2467;48.142;11.616;2023-03-01T03:21:31;2.80;99.90
4904;DHT22;2467;48.142;11.616;2023-03-01T03:22:04;2.90;99.90
4904;DHT22;2467;48.142;11.616;2023-03-01T03:22:36;2.90;99.90
4904;DHT22;2467;48.142;11.616;2023-03-01T03:23:08;2.80;99.90
4904;DHT22;2467;48.142;11.616;2023-03-01T03:23:41;2.80;99.90
4904;DHT22;2467;48.142;11.616;2023-03-01T03:24:13;2.80;99.90
4904;DHT22;2467;48.142;11.616;2023-03-01T03:24:44;2.80;99.90
4904;DHT22;2467;48.142;11.616;2023-03-01T03:25:18;2.80;99.90
4904;DHT22;2467;48.142;11.616;2023-03-01T03:25:50;2.90;99.90
4904;DHT22;2467;48.142;11.616;2023-03-01T03:26:22;2.90;99.90
4904;DHT22;2467;48.142;11.616;2023-03-01T03:26:55;2.90;99.90
4904;DHT22;2467;48.142;11.616;2023-03-01T03:27:27;3.00;99.90
4904;DHT22;2467;48.142;11.616;2023-03-01T03:27:59;3.00;99.90
4904;DHT22;2467;48.142;11.616;2023-03-01T03:28:33;3.10;99.90
4904;DHT22;2467;48.142;11.616;2023-03-01T03:29:06;3.10;99.90
4904;DHT22;2467;48.142;11.616;2023-03-01T03:29:39;3.10;99.90
4904;DHT22;2467;48.142;11.616;2023-03-01T03:30:13;3.10;99.90
4904;DHT22;2467;48.142;11.616;2023-03-01T03:30:45;3.10;99.90
4904;DHT22;2467;48.142;11.616;2023-03-01T03:31:18;3.10;99.90
4904;DHT22;2467;48.142;11.616;2023-03-01T03:31:51;3.00;99.90
4904;DHT22;2467;48.142;11.616;2023-03-01T03:32:23;3.00;99.90
4904;DHT22;2467;48.142;11.616;2023-03-01T03:32:55;3.00;99.90
4904;DHT22;2467;48.142;11.616;2023-03-01T03:33:28;3.00;99.90
4904;DHT22;2467;48.142;11.616;2023-03-01T03:34:00;3.00;99.90
4904;DHT22;2467;48.142;11.616;2023-03-01T03:34:32;2.90;99.90
4904;DHT22;2467;48.142;11.616;2023-03-01T03:35:07;2.90;99.90
4904;DHT22;2467;48.142;11.616;2023-03-01T03:35:42;2.90;99.90
4904;DHT22;2467;48.142;11.616;2023-03-01T03:36:15;2.90;99.90
4904;DHT22;2467;48.142;11.616;2023-03-01T03:36:53;2.90;99.90
4904;DHT22;2467;48.142;11.616;2023-03-01T03:37:28;2.90;99.90
4904;DHT22;2467;48.142;11.616;2023-03-01T03:38:19;2.90;99.90
4904;DHT22;2467;48.142;11.616;2023-03-01T03:38:53;2.90;99.90
4904;DHT22;2467;48.142;11.616;2023-03-01T03:39:26;2.90;99.90
4904;DHT22;2467;48.142;11.616;2023-03-01T03:39:59;2.80;99.90
4904;DHT22;2467;48.142;11.616;2023-03-01T03:40:32;2.80;99.90
4904;DHT22;2467;48.142;11.616;2023-03-01T03:41:06;2.80;99.90
4904;DHT22;2467;48.142;11.616;2023-03-01T03:41:39;2.70;99.90
4904;DHT22;2467;48.142;11.616;2023-03-01T03:42:11;2.70;99.90
4904;DHT22;2467;48.142;11.616;2023-03-01T03:42:43;2.70;99.90